Time;durP1;ratioP1;P1;durP2;ratioP2;P2;SDS_P1;SDS_P2;PMS_P1;PMS_P2;Temp;Humidity;BMP_temperature;BMP_pressure;BME280_temperature;BME280_humidity;BME280_pressure;Samples;Min_cycle;Max_cycle;Signal;HPM_P1;HPM_P2
2023/03/30 00:01:13;;;;;;;10.70;7.70;;;;;;;9.03;100.00;100101.30;105940;1253;61293;-69
2023/03/30 00:03:42;;;;;;;10.90;7.40;;;;;;;9.02;100.00;100098.60;105681;1254;61248;-74
2023/03/30 00:06:10;;;;;;;10.90;7.90;;;;;;;9.02;100.00;100092.61;105874;1255;73557;-70
2023/03/30 00:08:37;;;;;;;9.40;7.40;;;;;;;9.02;100.00;100091.23;105946;1255;71099;-70
2023/03/30 00:11:10;;;;;;;8.70;7.40;;;;;;;9.01;100.00;100092.58;105880;1253;71566;-67
2023/03/30 00:13:37;;;;;;;10.80;7.70;;;;;;;9.00;100.00;100092.13;105675;1255;61262;-69
2023/03/30 00:16:06;;;;;;;10.50;7.80;;;;;;;8.99;100.00;100093.84;105809;1253;61236;-70
2023/03/30 00:18:33;;;;;;;11.10;7.70;;;;;;;9.00;100.00;100092.54;105910;1255;74025;-72
2023/03/30 00:21:03;;;;;;;11.30;7.90;;;;;;;9.00;100.00;100086.67;105780;1254;71152;-71
2023/03/30 00:23:31;;;;;;;11.20;7.40;;;;;;;9.00;100.00;100081.80;105862;1253;73394;-71
2023/03/30 00:25:58;;;;;;;9.50;7.40;;;;;;;9.00;100.00;100075.56;105812;1253;61268;-70
2023/03/30 00:28:29;;;;;;;11.10;8.00;;;;;;;9.00;100.00;100065.88;105872;1257;61232;-71
2023/03/30 00:30:57;;;;;;;10.50;7.40;;;;;;;8.98;100.00;100049.63;105769;1256;72744;-70
2023/03/30 00:33:23;;;;;;;11.30;7.10;;;;;;;8.96;99.97;100054.80;105853;1253;71180;-71
2023/03/30 00:36:10;;;;;;;9.50;6.90;;;;;;;8.91;99.76;100051.21;105720;1253;71487;-68
2023/03/30 00:38:37;;;;;;;10.50;7.90;;;;;;;8.83;99.91;100051.59;105645;1258;61359;-72
2023/03/30 00:41:04;;;;;;;12.00;9.80;;;;;;;8.76;99.81;100053.88;105645;1253;61365;-71
2023/03/30 00:43:32;;;;;;;11.90;9.10;;;;;;;8.69;99.82;100049.32;105756;1257;74688;-71
2023/03/30 00:45:59;;;;;;;10.90;8.40;;;;;;;8.63;99.68;100036.81;105742;1257;69692;-71
2023/03/30 00:48:33;;;;;;;12.40;8.10;;;;;;;8.59;100.00;100028.52;105838;1256;72510;-71
2023/03/30 00:51:11;;;;;;;12.20;7.50;;;;;;;8.55;100.00;100025.23;105849;1252;61751;-74
2023/03/30 00:53:46;;;;;;;10.40;7.50;;;;;;;8.51;100.00;100021.95;105860;1253;61149;-73
2023/03/30 00:56:15;;;;;;;11.80;6.90;;;;;;;8.48;100.00;100019.53;105709;1253;73139;-73
2023/03/30 00:58:43;;;;;;;10.70;7.50;;;;;;;8.46;100.00;100011.11;105562;1254;70031;-71
2023/03/30 01:01:24;;;;;;;9.50;7.00;;;;;;;8.45;100.00;100001.77;105777;1252;71407;-71
2023/03/30 01:03:52;;;;;;;9.80;7.10;;;;;;;8.45;100.00;100000.52;105719;1254;62522;-74
2023/03/30 01:06:28;;;;;;;9.60;6.70;;;;;;;8.46;100.00;99998.98;105844;1253;61342;-70
2023/03/30 01:08:59;;;;;;;12.50;6.10;;;;;;;8.50;100.00;99992.55;105655;1258;75065;-70
2023/03/30 01:11:27;;;;;;;9.00;5.60;;;;;;;8.54;100.00;99993.58;105510;1255;69726;-69
2023/03/30 01:14:00;;;;;;;11.60;6.00;;;;;;;8.61;100.00;99996.34;105693;1253;71214;-74
2023/03/30 01:16:37;;;;;;;8.40;5.70;;;;;;;8.67;100.00;99990.55;105673;1253;61372;-70
2023/03/30 01:19:33;;;;;;;8.30;5.30;;;;;;;8.74;100.00;99994.52;105685;1257;61259;-70
2023/03/30 01:22:21;;;;;;;8.90;5.10;;;;;;;8.80;100.00;99994.65;105819;1253;73514;-72
2023/03/30 01:25:13;;;;;;;8.20;5.10;;;;;;;8.87;100.00;99995.09;105814;1256;71141;-72
2023/03/30 01:27:49;;;;;;;7.00;5.20;;;;;;;8.94;100.00;99991.23;105868;1254;72695;-75
2023/03/30 01:30:21;;;;;;;7.70;5.30;;;;;;;9.00;100.00;99991.73;105818;1257;61365;-71
2023/03/30 01:33:16;;;;;;;7.70;5.20;;;;;;;9.06;99.93;99981.56;105894;1258;61161;-70
2023/03/30 01:35:58;;;;;;;8.10;5.20;;;;;;;9.10;99.66;99970.63;106013;1253;75142;-70
2023/03/30 01:38:43;;;;;;;7.80;5.30;;;;;;;9.12;99.13;99962.27;105871;1256;69665;-69
2023/03/30 01:41:39;;;;;;;8.20;4.90;;;;;;;9.13;98.96;99957.47;105664;1255;72682;-72
2023/03/30 01:44:24;;;;;;;6.60;4.70;;;;;;;9.12;98.52;99947.00;105548;1255;61472;-70
2023/03/30 01:47:04;;;;;;;5.80;4.50;;;;;;;9.09;98.30;99949.67;105690;1256;61439;-70
2023/03/30 01:49:45;;;;;;;7.50;4.30;;;;;;;9.05;98.41;99942.46;105822;1254;73474;-71
2023/03/30 01:52:27;;;;;;;6.80;4.60;;;;;;;9.03;98.32;99935.71;105874;1252;69827;-73
2023/03/30 01:55:03;;;;;;;5.90;4.30;;;;;;;9.02;98.83;99929.19;105839;1253;71201;-69
2023/03/30 01:57:51;;;;;;;8.90;4.70;;;;;;;9.02;98.94;99922.11;105888;1253;61369;-70
2023/03/30 02:00:21;;;;;;;6.90;4.30;;;;;;;9.03;99.05;99916.15;105808;1258;61167;-70
2023/03/30 02:02:54;;;;;;;7.30;4.60;;;;;;;9.04;99.26;99909.85;105759;1255;73480;-71
2023/03/30 02:05:23;;;;;;;7.00;4.20;;;;;;;9.07;99.22;99905.12;105907;1253;71190;-74
2023/03/30 02:08:00;;;;;;;6.50;4.30;;;;;;;9.12;99.56;99905.55;105810;1253;71376;-71
2023/03/30 02:10:31;;;;;;;8.80;4.10;;;;;;;9.15;99.46;99902.47;105800;1254;61295;-70
2023/03/30 02:12:59;;;;;;;8.20;4.50;;;;;;;9.19;99.23;99902.19;105780;1257;61151;-70
2023/03/30 02:15:49;;;;;;;7.40;4.20;;;;;;;9.23;99.37;99901.13;105808;1253;74350;-70
2023/03/30 02:18:15;;;;;;;6.20;3.70;;;;;;;9.29;99.12;99890.60;105916;1257;70026;-71
2023/03/30 02:20:42;;;;;;;6.60;3.80;;;;;;;9.32;99.27;99884.66;105831;1256;71137;-72
2023/03/30 02:23:08;;;;;;;7.50;3.90;;;;;;;9.39;99.32;99888.33;105698;1258;61254;-69
2023/03/30 02:25:37;;;;;;;7.10;3.40;;;;;;;9.48;99.28;99892.04;105635;1253;61318;-69
2023/03/30 02:28:06;;;;;;;6.20;3.60;;;;;;;9.57;98.99;99889.85;105749;1253;75322;-72
2023/03/30 02:30:37;;;;;;;8.10;3.80;;;;;;;9.68;98.69;99875.61;105790;1253;69061;-69
2023/03/30 02:33:04;;;;;;;5.60;3.10;;;;;;;9.79;98.24;99873.04;105800;1253;71262;-74
2023/03/30 02:35:34;;;;;;;6.50;3.30;;;;;;;9.88;97.56;99867.66;105804;1253;62471;-69
2023/03/30 02:38:15;;;;;;;5.20;3.20;;;;;;;9.95;96.95;99865.42;105676;1257;61235;-71
2023/03/30 02:40:50;;;;;;;6.30;3.60;;;;;;;10.03;96.34;99862.05;105684;1254;73257;-72
2023/03/30 02:43:41;;;;;;;6.10;3.20;;;;;;;10.09;95.92;99852.41;105734;1253;71024;-71
2023/03/30 02:46:26;;;;;;;5.40;3.30;;;;;;;10.14;95.40;99832.68;105665;1254;72669;-69
2023/03/30 02:49:09;;;;;;;4.30;3.20;;;;;;;10.18;94.94;99809.97;105871;1257;61237;-69
2023/03/30 02:52:04;;;;;;;5.40;3.20;;;;;;;10.21;94.74;99813.36;105816;1255;61636;-69
2023/03/30 02:54:49;;;;;;;7.00;3.40;;;;;;;10.26;94.35;99824.73;105696;1253;72224;-69
2023/03/30 02:57:40;;;;;;;5.50;3.00;;;;;;;10.33;94.00;99820.65;105788;1254;71387;-70
2023/03/30 03:00:17;;;;;;;5.90;3.20;;;;;;;10.39;93.72;99825.17;105727;1258;70837;-69
2023/03/30 03:02:51;;;;;;;6.50;3.10;;;;;;;10.44;93.16;99835.59;105758;1253;61252;-74
2023/03/30 03:05:19;;;;;;;5.30;3.30;;;;;;;10.48;92.93;99823.25;105746;1255;61932;-71
2023/03/30 03:07:47;;;;;;;6.10;3.30;;;;;;;10.50;92.48;99819.23;105837;1258;75271;-67
2023/03/30 03:10:13;;;;;;;4.80;3.10;;;;;;;10.52;92.32;99820.55;105790;1255;69653;-70
2023/03/30 03:12:43;;;;;;;4.60;2.90;;;;;;;10.54;91.94;99831.98;105713;1255;72837;-69
2023/03/30 03:15:11;;;;;;;5.50;3.10;;;;;;;10.55;91.66;99834.31;105881;1253;61723;-69
2023/03/30 03:17:37;;;;;;;6.10;3.10;;;;;;;10.55;91.57;99832.67;105684;1256;61261;-69
2023/03/30 03:20:06;;;;;;;4.60;2.90;;;;;;;10.56;91.39;99832.59;105744;1253;74632;-73
2023/03/30 03:22:33;;;;;;;4.80;3.10;;;;;;;10.57;91.22;99829.11;105775;1257;69783;-69
2023/03/30 03:25:01;;;;;;;5.50;2.80;;;;;;;10.58;91.13;99825.96;105813;1258;61366;-71
2023/03/30 03:27:28;;;;;;;5.00;2.80;;;;;;;10.58;91.14;99820.09;105875;1253;61770;-68
2023/03/30 03:29:54;;;;;;;4.40;2.90;;;;;;;10.63;91.16;99822.89;105693;1258;61360;-73
2023/03/30 03:32:21;;;;;;;6.20;3.00;;;;;;;10.65;90.88;99825.31;105820;1257;61231;-70
2023/03/30 03:34:48;;;;;;;4.60;2.60;;;;;;;10.67;90.90;99825.19;105723;1257;71506;-71
2023/03/30 03:37:14;;;;;;;5.50;2.80;;;;;;;10.69;90.73;99814.67;105668;1256;71543;-71
2023/03/30 03:39:41;;;;;;;6.00;2.90;;;;;;;10.72;90.37;99802.11;105751;1254;61243;-73
2023/03/30 03:42:07;;;;;;;5.20;2.70;;;;;;;10.76;90.23;99797.89;105844;1256;61167;-69
2023/03/30 03:44:36;;;;;;;5.00;2.90;;;;;;;10.80;89.79;99798.63;105751;1256;61179;-69
2023/03/30 03:47:03;;;;;;;5.70;2.60;;;;;;;10.85;89.34;99795.72;105495;1256;71192;-72
2023/03/30 03:49:30;;;;;;;5.30;2.60;;;;;;;10.91;88.92;99790.77;105779;1256;71500;-70
2023/03/30 03:51:56;;;;;;;6.80;2.70;;;;;;;10.98;88.38;99793.27;105849;1253;61350;-69
2023/03/30 03:54:23;;;;;;;6.40;2.50;;;;;;;11.05;87.80;99783.86;105790;1258;61229;-69
2023/03/30 03:56:50;;;;;;;5.00;2.40;;;;;;;11.12;86.89;99779.88;105778;1256;61338;-69
2023/03/30 03:59:17;;;;;;;5.40;2.40;;;;;;;11.24;86.26;99778.52;105695;1254;70949;-70
2023/03/30 04:01:44;;;;;;;4.10;2.20;;;;;;;11.33;85.76;99776.44;105733;1256;61154;-69
2023/03/30 04:04:10;;;;;;;4.50;2.30;;;;;;;11.42;84.34;99779.19;105920;1253;61344;-68
2023/03/30 04:06:37;;;;;;;4.50;2.40;;;;;;;11.52;84.38;99777.68;105533;1258;61229;-69
2023/03/30 04:09:03;;;;;;;4.40;2.50;;;;;;;11.60;84.08;99773.64;105643;1253;61827;-69
2023/03/30 04:11:30;;;;;;;6.20;2.40;;;;;;;11.65;82.93;99773.64;105742;1256;61651;-69
2023/03/30 04:13:56;;;;;;;6.80;2.40;;;;;;;11.73;82.48;99774.91;105692;1258;61354;-67
2023/03/30 04:16:23;;;;;;;5.00;2.30;;;;;;;11.79;81.81;99770.70;105686;1253;61597;-69
2023/03/30 04:18:49;;;;;;;5.30;2.50;;;;;;;11.84;81.18;99767.91;105416;1253;61363;-68
2023/03/30 04:21:16;;;;;;;6.00;2.60;;;;;;;11.89;81.06;99766.57;105846;1253;61327;-70
2023/03/30 04:23:47;;;;;;;7.10;2.60;;;;;;;11.93;80.84;99755.30;105641;1256;70037;-69
2023/03/30 04:26:16;;;;;;;5.30;2.40;;;;;;;11.97;79.63;99750.42;105843;1253;71497;-72
2023/03/30 04:28:43;;;;;;;5.50;2.90;;;;;;;12.03;79.80;99739.79;105846;1253;61851;-71
2023/03/30 04:31:09;;;;;;;5.30;2.20;;;;;;;12.06;79.86;99735.11;105835;1253;61286;-69
2023/03/30 04:33:43;;;;;;;6.60;2.60;;;;;;;12.06;79.28;99732.73;105530;1258;74133;-71
2023/03/30 04:36:16;;;;;;;5.10;2.30;;;;;;;12.06;79.29;99725.71;105672;1256;69983;-72
2023/03/30 04:38:44;;;;;;;7.10;2.60;;;;;;;12.06;79.35;99726.60;105716;1258;72630;-71
2023/03/30 04:41:12;;;;;;;5.40;2.40;;;;;;;12.04;79.15;99724.73;105740;1253;63049;-67
2023/03/30 04:43:39;;;;;;;5.70;2.30;;;;;;;12.04;79.12;99725.71;105930;1254;61203;-69
2023/03/30 04:46:06;;;;;;;4.40;2.10;;;;;;;12.04;78.91;99726.69;105900;1256;73115;-68
2023/03/30 04:48:32;;;;;;;5.00;2.20;;;;;;;12.06;78.81;99736.13;105827;1253;70354;-70
2023/03/30 04:50:59;;;;;;;5.50;2.50;;;;;;;12.08;78.65;99737.16;105708;1253;61265;-70
2023/03/30 04:53:25;;;;;;;6.60;2.30;;;;;;;12.10;79.15;99743.48;105691;1253;61257;-70
2023/03/30 04:55:52;;;;;;;4.20;2.20;;;;;;;12.09;78.99;99738.02;105712;1256;62720;-70
2023/03/30 04:58:18;;;;;;;6.00;2.10;;;;;;;12.08;79.01;99741.89;105704;1253;61271;-68
2023/03/30 05:00:44;;;;;;;6.20;2.30;;;;;;;12.06;79.28;99738.66;105771;1257;61277;-72
2023/03/30 05:03:11;;;;;;;5.30;2.20;;;;;;;12.02;79.35;99740.08;105775;1253;61760;-70
2023/03/30 05:05:38;;;;;;;4.20;2.20;;;;;;;11.98;79.86;99739.34;105745;1256;61835;-69
2023/03/30 05:08:05;;;;;;;3.90;2.30;;;;;;;11.95;79.73;99733.05;105839;1258;61851;-68
2023/03/30 05:10:31;;;;;;;6.00;2.60;;;;;;;11.93;80.08;99728.40;105768;1254;61234;-69
2023/03/30 05:12:57;;;;;;;5.60;2.10;;;;;;;11.91;79.96;99730.44;105680;1258;61232;-70
2023/03/30 05:15:24;;;;;;;6.00;2.60;;;;;;;11.88;79.93;99732.55;105714;1258;61826;-69
2023/03/30 05:17:50;;;;;;;6.10;2.60;;;;;;;11.84;79.82;99735.85;105644;1257;61358;-68
2023/03/30 05:20:17;;;;;;;6.90;2.70;;;;;;;11.80;79.92;99731.65;105737;1256;61382;-69
2023/03/30 05:22:45;;;;;;;6.40;2.10;;;;;;;11.77;80.03;99731.66;105706;1253;61336;-69
2023/03/30 05:25:12;;;;;;;5.60;2.40;;;;;;;11.73;79.96;99734.11;105756;1258;69497;-70
2023/03/30 05:27:39;;;;;;;6.60;2.30;;;;;;;11.71;79.91;99730.59;105546;1254;72456;-70
2023/03/30 05:30:07;;;;;;;5.60;2.20;;;;;;;11.70;79.67;99731.09;105742;1253;61769;-69
2023/03/30 05:32:34;;;;;;;4.70;2.10;;;;;;;11.72;79.60;99733.46;105729;1253;61231;-73
2023/03/30 05:35:01;;;;;;;4.50;2.20;;;;;;;11.76;79.11;99724.39;105383;1258;291125;-72
2023/03/30 05:37:27;;;;;;;5.60;2.10;;;;;;;11.82;78.63;99720.65;105714;1253;61352;-71
2023/03/30 05:39:53;;;;;;;4.30;2.00;;;;;;;11.90;78.57;99712.56;105770;1256;61248;-73
2023/03/30 05:42:20;;;;;;;5.60;2.20;;;;;;;11.98;78.33;99709.24;105939;1253;61254;-68
2023/03/30 05:44:47;;;;;;;4.60;2.10;;;;;;;12.04;78.23;99717.75;105844;1258;61292;-69
2023/03/30 05:47:13;;;;;;;5.70;2.10;;;;;;;12.10;77.41;99718.38;105702;1253;62276;-69
2023/03/30 05:49:40;;;;;;;5.50;2.20;;;;;;;12.18;77.32;99712.91;105775;1253;61363;-69
2023/03/30 05:52:10;;;;;;;4.70;2.10;;;;;;;12.23;76.90;99711.63;105828;1256;61369;-69
2023/03/30 05:54:36;;;;;;;5.90;2.40;;;;;;;12.30;76.62;99713.08;105835;1257;61173;-68
2023/03/30 05:57:03;;;;;;;3.90;2.00;;;;;;;12.37;76.43;99715.67;105731;1253;61348;-72
2023/03/30 05:59:29;;;;;;;6.70;2.00;;;;;;;12.44;75.88;99716.74;105733;1258;61194;-71
2023/03/30 06:01:56;;;;;;;4.80;2.00;;;;;;;12.51;75.46;99724.86;105733;1254;61340;-73
2023/03/30 06:04:22;;;;;;;6.50;1.90;;;;;;;12.56;74.93;99727.70;105597;1258;61289;-69
2023/03/30 06:06:49;;;;;;;5.70;2.00;;;;;;;12.62;74.78;99732.02;105948;1257;61413;-70
2023/03/30 06:09:15;;;;;;;6.20;1.90;;;;;;;12.68;74.31;99725.44;105796;1254;61672;-72
2023/03/30 06:11:42;;;;;;;7.70;2.10;;;;;;;12.72;74.01;99723.81;105749;1256;61266;-69
2023/03/30 06:14:09;;;;;;;4.70;1.80;;;;;;;12.77;73.76;99720.42;105727;1256;61798;-69
2023/03/30 06:16:36;;;;;;;6.50;2.10;;;;;;;12.84;73.80;99716.63;105888;1253;72683;-71
2023/03/30 06:19:03;;;;;;;7.10;1.90;;;;;;;12.91;73.55;99719.14;105865;1255;61356;-72
2023/03/30 06:21:30;;;;;;;4.00;1.70;;;;;;;12.98;73.08;99717.61;105733;1255;61205;-70
2023/03/30 06:23:56;;;;;;;4.60;1.60;;;;;;;13.06;72.67;99711.54;105792;1257;61199;-69
2023/03/30 06:26:23;;;;;;;4.10;1.80;;;;;;;13.17;72.07;99703.89;105717;1258;61296;-70
2023/03/30 06:28:49;;;;;;;4.80;1.70;;;;;;;13.28;71.80;99699.39;105915;1255;61394;-69
2023/03/30 06:31:16;;;;;;;3.20;1.50;;;;;;;13.42;71.57;99695.48;105776;1253;61269;-68
2023/03/30 06:33:43;;;;;;;4.30;1.30;;;;;;;13.56;70.35;99683.55;105938;1258;61149;-72
2023/03/30 06:36:12;;;;;;;6.10;1.70;;;;;;;13.71;69.68;99679.59;105772;1256;74775;-68
2023/03/30 06:38:42;;;;;;;5.60;1.50;;;;;;;13.89;69.45;99681.66;105940;1258;71213;-69
2023/03/30 06:41:10;;;;;;;3.50;1.40;;;;;;;14.05;68.82;99678.45;106047;1256;72768;-67
2023/03/30 06:43:38;;;;;;;4.30;1.60;;;;;;;14.19;68.49;99676.44;105464;1259;62127;-68
2023/03/30 06:46:05;;;;;;;4.70;1.60;;;;;;;14.32;67.99;99673.90;105783;1257;61231;-72
2023/03/30 06:48:32;;;;;;;6.00;1.60;;;;;;;14.42;67.24;99671.53;105671;1253;75211;-70
2023/03/30 06:50:59;;;;;;;3.40;1.40;;;;;;;14.51;66.93;99671.45;105744;1255;69655;-69
2023/03/30 06:53:27;;;;;;;4.60;1.50;;;;;;;14.59;66.84;99668.91;105722;1256;71520;-69
2023/03/30 06:55:56;;;;;;;4.70;1.60;;;;;;;14.61;66.24;99669.83;105740;1253;61819;-73
2023/03/30 06:58:24;;;;;;;4.50;1.50;;;;;;;14.63;66.17;99668.77;105743;1258;61231;-69
2023/03/30 07:00:52;;;;;;;3.90;1.50;;;;;;;14.64;66.51;99671.63;105815;1256;74628;-69
2023/03/30 07:03:19;;;;;;;5.90;1.80;;;;;;;14.66;66.71;99671.20;105818;1258;70941;-68
2023/03/30 07:05:50;;;;;;;4.90;1.90;;;;;;;14.68;66.41;99683.31;105725;1260;71190;-72
2023/03/30 07:08:17;;;;;;;3.50;1.50;;;;;;;14.69;66.17;99685.60;105659;1259;61239;-70
2023/03/30 07:10:46;;;;;;;4.40;1.60;;;;;;;14.74;66.34;99683.66;105830;1253;61238;-69
2023/03/30 07:13:15;;;;;;;6.70;1.50;;;;;;;14.78;66.39;99693.97;105498;1255;73223;-70
2023/03/30 07:15:43;;;;;;;5.00;1.40;;;;;;;14.79;66.14;99702.88;106066;1256;69959;-69
2023/03/30 07:18:10;;;;;;;4.40;1.70;;;;;;;14.79;66.12;99706.98;105634;1257;72658;-68
2023/03/30 07:20:36;;;;;;;6.10;1.80;;;;;;;14.79;65.99;99706.33;105792;1253;61285;-70
2023/03/30 07:23:03;;;;;;;5.40;1.60;;;;;;;14.81;65.78;99703.52;105501;1253;61741;-72
2023/03/30 07:25:30;;;;;;;6.10;1.80;;;;;;;14.86;65.93;99699.41;105702;1254;73149;-68
2023/03/30 07:27:57;;;;;;;4.80;1.60;;;;;;;14.90;65.91;99697.17;105643;1257;69646;-72
2023/03/30 07:30:23;;;;;;;6.30;1.60;;;;;;;14.91;65.67;99696.34;105993;1253;71443;-68
2023/03/30 07:32:50;;;;;;;4.80;1.50;;;;;;;14.92;65.88;99697.53;105843;1257;61246;-69
2023/03/30 07:35:17;;;;;;;5.80;1.60;;;;;;;14.93;65.49;99697.39;105693;1259;61333;-70
2023/03/30 07:37:44;;;;;;;6.10;1.80;;;;;;;14.96;65.87;99700.74;105675;1258;74352;-74
2023/03/30 07:40:11;;;;;;;7.50;2.00;;;;;;;15.01;65.98;99710.00;105913;1257;71202;-70
2023/03/30 07:42:38;;;;;;;9.00;1.80;;;;;;;15.07;65.92;99706.41;105769;1258;71843;-70
2023/03/30 07:45:06;;;;;;;6.70;1.70;;;;;;;15.15;65.99;99703.99;105722;1258;61220;-68
2023/03/30 07:47:32;;;;;;;6.60;1.80;;;;;;;15.25;65.88;99705.20;105717;1258;61215;-66
2023/03/30 07:49:59;;;;;;;5.40;1.60;;;;;;;15.31;64.77;99710.12;105820;1257;73504;-68
2023/03/30 07:52:26;;;;;;;3.90;1.60;;;;;;;15.39;64.64;99701.80;105906;1254;61227;-70
2023/03/30 07:54:55;;;;;;;3.90;1.50;;;;;;;15.45;63.66;99693.59;105906;1256;72722;-71
2023/03/30 07:57:22;;;;;;;7.20;1.60;;;;;;;15.50;63.75;99701.05;105675;1255;61982;-69
2023/03/30 07:59:48;;;;;;;6.10;1.60;;;;;;;15.55;63.83;99697.94;105687;1257;61151;-68
2023/03/30 08:02:16;;;;;;;6.40;1.60;;;;;;;15.61;63.71;99701.08;105773;1258;61825;-71
2023/03/30 08:04:43;;;;;;;7.70;2.30;;;;;;;15.66;63.67;99699.33;105805;1253;69961;-72
2023/03/30 08:07:10;;;;;;;5.50;1.50;;;;;;;15.73;63.80;99702.86;105694;1257;72848;-69
2023/03/30 08:09:37;;;;;;;4.70;1.60;;;;;;;15.82;63.68;99703.45;105686;1258;62029;-69
2023/03/30 08:12:03;;;;;;;5.00;1.50;;;;;;;15.92;63.42;99703.73;105674;1259;61359;-73
2023/03/30 08:14:30;;;;;;;6.10;1.70;;;;;;;15.97;62.58;99707.79;105765;1257;74596;-68
2023/03/30 08:16:56;;;;;;;4.00;1.30;;;;;;;16.05;62.94;99710.63;105846;1256;61511;-69
2023/03/30 08:19:24;;;;;;;7.00;1.40;;;;;;;16.13;63.30;99707.39;105767;1260;61380;-68
2023/03/30 08:21:50;;;;;;;7.00;1.60;;;;;;;16.20;62.32;99709.23;105706;1257;61749;-69
2023/03/30 08:24:17;;;;;;;5.50;2.00;;;;;;;16.20;61.94;99709.13;105640;1257;61337;-70
2023/03/30 08:26:43;;;;;;;6.10;1.70;;;;;;;16.23;62.13;99713.73;105807;1266;61727;-71
2023/03/30 08:29:11;;;;;;;6.00;2.10;;;;;;;16.24;62.31;99714.62;105872;1259;61395;-70
2023/03/30 08:31:38;;;;;;;5.20;1.50;;;;;;;16.24;62.35;99718.91;105914;1256;71475;-70
2023/03/30 08:34:06;;;;;;;5.80;1.40;;;;;;;16.15;61.21;99721.92;105624;1257;61369;-71
2023/03/30 08:36:33;;;;;;;4.80;1.30;;;;;;;16.13;61.93;99718.52;105347;1259;62032;-71
2023/03/30 08:38:59;;;;;;;4.50;1.50;;;;;;;16.14;62.34;99713.83;105785;1257;74422;-68
2023/03/30 08:41:30;;;;;;;5.50;1.30;;;;;;;16.20;62.56;99714.70;105575;1254;61260;-72
2023/03/30 08:44:00;;;;;;;4.80;1.40;;;;;;;16.35;62.87;99702.21;105788;1257;72038;-67
2023/03/30 08:46:28;;;;;;;4.20;1.70;;;;;;;16.55;62.95;99702.13;105709;1258;61136;-69
2023/03/30 08:49:00;;;;;;;7.00;1.40;;;;;;;16.72;62.01;99693.66;105448;1258;61745;-68
2023/03/30 08:51:28;;;;;;;5.10;1.50;;;;;;;16.83;61.60;99691.58;105659;1258;74396;-72
2023/03/30 08:54:04;;;;;;;4.70;1.50;;;;;;;16.91;61.07;99700.77;105773;1258;70170;-72
2023/03/30 08:56:32;;;;;;;5.90;1.40;;;;;;;16.94;60.44;99701.23;105776;1252;72385;-69
2023/03/30 08:59:14;;;;;;;6.60;1.70;;;;;;;16.89;60.09;99701.92;105679;1254;61240;-70
2023/03/30 09:01:57;;;;;;;5.50;1.80;;;;;;;16.80;60.37;99692.84;105777;1258;61453;-69
2023/03/30 09:04:42;;;;;;;5.00;1.60;;;;;;;16.81;60.36;99685.41;105788;1258;74727;-69
2023/03/30 09:07:16;;;;;;;4.30;1.80;;;;;;;16.77;59.82;99692.57;105821;1257;69516;-68
2023/03/30 09:09:46;;;;;;;6.10;1.90;;;;;;;16.77;60.04;99684.28;105683;1257;70336;-71
2023/03/30 09:12:36;;;;;;;7.20;1.80;;;;;;;16.86;60.32;99686.95;105499;1255;61248;-69
2023/03/30 09:15:17;;;;;;;8.10;2.10;;;;;;;16.89;59.50;99686.16;105794;1253;61233;-73
2023/03/30 09:17:59;;;;;;;5.90;1.80;;;;;;;16.99;59.75;99683.17;105700;1258;73478;-71
2023/03/30 09:20:32;;;;;;;6.90;2.00;;;;;;;17.02;59.76;99689.38;105843;1254;69435;-71
2023/03/30 09:23:01;;;;;;;8.50;2.00;;;;;;;17.08;59.99;99688.63;105691;1259;72753;-68
2023/03/30 09:25:39;;;;;;;6.00;1.70;;;;;;;17.20;59.73;99688.25;105701;1257;61398;-69
2023/03/30 09:28:28;;;;;;;5.50;1.50;;;;;;;17.40;59.27;99687.59;105799;1268;61210;-71
2023/03/30 09:31:07;;;;;;;5.60;2.10;;;;;;;17.56;58.87;99685.52;105858;1256;73435;-71
2023/03/30 09:33:42;;;;;;;3.60;1.60;;;;;;;17.71;57.95;99688.42;105740;1257;71231;-72
2023/03/30 09:36:14;;;;;;;5.20;1.70;;;;;;;17.77;57.70;99698.48;105781;1254;71160;-68
2023/03/30 09:38:42;;;;;;;4.50;1.50;;;;;;;17.77;56.82;99686.63;105744;1258;61854;-68
2023/03/30 09:41:20;;;;;;;4.10;1.60;;;;;;;17.65;56.90;99692.20;105789;1257;61867;-69
2023/03/30 09:43:50;;;;;;;6.70;1.70;;;;;;;17.58;57.08;99683.56;105792;1257;74678;-70
2023/03/30 09:46:16;;;;;;;5.70;1.40;;;;;;;17.49;57.74;99684.61;105820;1253;70735;-70
2023/03/30 09:48:45;;;;;;;5.90;1.60;;;;;;;17.33;58.45;99685.83;105803;1257;72706;-69
2023/03/30 09:51:26;;;;;;;6.20;1.70;;;;;;;17.18;59.01;99682.98;105763;1254;61275;-70
2023/03/30 09:54:02;;;;;;;4.80;1.50;;;;;;;16.98;59.20;99683.90;105650;1257;61262;-73
2023/03/30 09:56:45;;;;;;;6.70;1.70;;;;;;;16.71;59.18;99703.70;105675;1257;73720;-70
2023/03/30 09:59:29;;;;;;;4.80;1.40;;;;;;;16.34;61.40;99700.91;105818;1257;69691;-68
2023/03/30 10:02:19;;;;;;;4.80;1.50;;;;;;;15.88;67.98;99728.75;105706;1257;72723;-70
2023/03/30 10:04:52;;;;;;;4.20;1.80;;;;;;;15.18;73.55;99734.91;105712;1259;61630;-70
2023/03/30 10:07:25;;;;;;;5.40;1.80;;;;;;;14.63;76.78;99732.33;105630;1257;61344;-68
2023/03/30 10:09:52;;;;;;;5.10;2.00;;;;;;;14.31;78.88;99731.34;105668;1266;75600;-71
2023/03/30 10:12:21;;;;;;;5.10;1.80;;;;;;;14.12;80.24;99728.09;105750;1256;71000;-68
2023/03/30 10:14:53;;;;;;;6.00;2.00;;;;;;;14.03;80.23;99726.19;105732;1253;72768;-68
2023/03/30 10:17:24;;;;;;;3.60;1.60;;;;;;;14.03;80.92;99718.59;105595;1254;61626;-70
2023/03/30 10:20:19;;;;;;;6.10;2.00;;;;;;;14.03;81.20;99718.60;105833;1254;61385;-68
2023/03/30 10:23:02;;;;;;;4.80;2.00;;;;;;;14.10;80.62;99718.52;105491;1258;73521;-71
2023/03/30 10:25:32;;;;;;;4.90;1.90;;;;;;;14.20;79.79;99722.40;105777;1254;69979;-78
2023/03/30 10:28:02;;;;;;;5.20;2.00;;;;;;;14.28;79.78;99718.98;105712;1258;72538;-79
2023/03/30 10:30:30;;;;;;;5.40;1.90;;;;;;;14.36;79.71;99708.46;105957;1257;61738;-80
2023/03/30 10:33:01;;;;;;;6.90;2.20;;;;;;;14.41;79.31;99706.34;105606;1260;61968;-77
2023/03/30 10:35:36;;;;;;;6.50;2.30;;;;;;;14.42;78.89;99704.77;105689;1260;74526;-83
2023/03/30 10:38:06;;;;;;;6.40;2.10;;;;;;;14.44;78.19;99704.62;105747;1257;71447;-80
2023/03/30 10:40:36;;;;;;;6.10;2.20;;;;;;;14.45;78.21;99708.76;105903;1253;72441;-82
2023/03/30 10:43:07;;;;;;;5.30;2.00;;;;;;;14.47;78.75;99714.36;105831;1257;61876;-79
2023/03/30 10:45:43;;;;;;;5.30;2.00;;;;;;;14.48;78.59;99721.56;105805;1254;61458;-79
2023/03/30 10:48:22;;;;;;;5.60;1.90;;;;;;;14.47;78.59;99720.23;105806;1256;73152;-80
2023/03/30 10:51:30;;;;;;;5.30;2.10;;;;;;;14.44;78.78;99722.64;105939;1257;72215;-78
2023/03/30 10:54:25;;;;;;;5.60;2.00;;;;;;;14.38;79.38;99751.88;105452;1266;72922;-80
2023/03/30 10:57:15;;;;;;;2.70;1.00;;;;;;;14.10;79.06;99784.09;105875;1254;61178;-76
2023/03/30 11:00:08;;;;;;;3.90;1.10;;;;;;;13.38;81.62;99793.77;105773;1253;61751;-72
2023/03/30 11:02:59;;;;;;;5.10;0.80;;;;;;;12.60;86.24;99789.08;105778;1258;74696;-73
2023/03/30 11:05:54;;;;;;;2.80;1.00;;;;;;;12.10;90.04;99782.71;105865;1255;71261;-74
2023/03/30 11:08:43;;;;;;;4.20;1.10;;;;;;;11.78;92.43;99774.61;105710;1259;71298;-75
2023/03/30 11:11:17;;;;;;;3.60;1.20;;;;;;;11.57;93.81;99769.91;105780;1254;62513;-76
2023/03/30 11:13:52;;;;;;;3.00;1.00;;;;;;;11.55;94.07;99766.52;105944;1257;61277;-78
2023/03/30 11:16:20;;;;;;;4.30;1.50;;;;;;;11.57;94.51;99762.44;105730;1257;74721;-77
2023/03/30 11:18:56;;;;;;;5.60;1.50;;;;;;;11.65;94.76;99761.05;105964;1257;70270;-79
2023/03/30 11:21:49;;;;;;;6.30;1.60;;;;;;;11.77;94.32;99754.83;105803;1260;74868;-78
2023/03/30 11:24:23;;;;;;;4.00;1.20;;;;;;;11.99;93.32;99755.52;105953;1254;61284;-79
2023/03/30 11:27:06;;;;;;;5.20;1.40;;;;;;;12.19;91.80;99755.69;105922;1253;61285;-79
2023/03/30 11:30:03;;;;;;;4.00;1.20;;;;;;;12.43;88.72;99760.25;105875;1257;73686;-78
2023/03/30 11:33:16;;;;;;;4.40;1.30;;;;;;;12.80;88.41;99752.42;105891;1254;69649;-78
2023/03/30 11:35:52;;;;;;;4.30;1.50;;;;;;;13.15;85.89;99753.30;105907;1254;72866;-79
2023/03/30 11:38:27;;;;;;;4.80;1.20;;;;;;;13.31;83.52;99742.85;105875;1259;62533;-83
2023/03/30 11:41:03;;;;;;;5.10;1.40;;;;;;;13.47;84.32;99738.27;106030;1253;61608;-79
2023/03/30 11:43:30;;;;;;;6.20;1.60;;;;;;;13.67;83.35;99741.71;105856;1254;72829;-78
2023/03/30 11:46:07;;;;;;;6.80;1.70;;;;;;;13.79;82.21;99740.73;105944;1254;70317;-78